createdAt,value
2022-08-23T00:01:58.768Z,86.66
2022-08-23T00:04:34.957Z,86.65
2022-08-23T00:07:05.759Z,86.52
2022-08-23T00:09:34.423Z,86.72
2022-08-23T00:12:18.286Z,87.05
2022-08-23T00:14:49.190Z,86.97
2022-08-23T00:17:33.262Z,87.47
2022-08-23T00:20:08.268Z,87.12
2022-08-23T00:22:37.261Z,87.51
2022-08-23T00:25:07.652Z,87.43
2022-08-23T00:27:36.656Z,87.62
2022-08-23T00:30:09.123Z,87.48
2022-08-23T00:32:39.190Z,87.68
2022-08-23T00:35:09.647Z,87.74
2022-08-23T00:37:39.165Z,87.76
2022-08-23T00:40:10.129Z,87.80
2022-08-23T00:43:11.001Z,88.17
2022-08-23T00:46:11.033Z,88.04
2022-08-23T00:48:40.331Z,88.02
2022-08-23T00:51:14.755Z,88.37
2022-08-23T00:53:47.981Z,88.61
2022-08-23T00:56:18.032Z,88.56
2022-08-23T00:58:47.239Z,88.92
2022-08-23T01:01:16.143Z,89.19
2022-08-23T01:04:04.022Z,89.19
2022-08-23T01:07:03.024Z,89.49
2022-08-23T01:09:31.300Z,89.58
2022-08-23T01:12:32.397Z,89.64
2022-08-23T01:15:09.257Z,89.37
2022-08-23T01:17:46.417Z,89.88
2022-08-23T01:20:22.296Z,89.74
2022-08-23T01:23:24.705Z,89.74
2022-08-23T01:25:53.221Z,90.10
2022-08-23T01:28:21.637Z,89.94
2022-08-23T01:30:50.152Z,90.03
2022-08-23T01:33:20.265Z,90.38
2022-08-23T01:35:53.656Z,90.32
2022-08-23T01:38:23.988Z,90.29
2022-08-23T01:40:53.589Z,90.35
2022-08-23T01:43:23.179Z,90.33
2022-08-23T01:45:54.538Z,90.61
2022-08-23T01:48:24.957Z,90.50
2022-08-23T01:50:53.348Z,90.42
2022-08-23T01:53:21.685Z,90.74
2022-08-23T01:55:51.160Z,90.77
2022-08-23T01:58:21.576Z,90.85
2022-08-23T02:00:49.872Z,90.80
2022-08-23T02:03:19.728Z,90.70
2022-08-23T02:05:48.225Z,90.78
2022-08-23T02:08:35.048Z,90.94
2022-08-23T02:11:12.713Z,90.90
2022-08-23T02:13:45.258Z,90.88
2022-08-23T02:16:22.265Z,91.10
2022-08-23T02:18:51.731Z,91.32
2022-08-23T02:21:20.174Z,91.71
2022-08-23T02:23:49.040Z,92.04
2022-08-23T02:26:18.150Z,92.03
2022-08-23T02:28:50.294Z,92.77
2022-08-23T02:31:19.456Z,92.96
2022-08-23T02:33:48.702Z,93.12
2022-08-23T02:38:51.654Z,93.52
2022-08-23T02:41:19.881Z,93.46
2022-08-23T02:43:52.249Z,93.80
2022-08-23T02:46:21.533Z,93.75
2022-08-23T02:48:49.977Z,94.01
2022-08-23T02:51:18.909Z,93.94
2022-08-23T02:53:47.046Z,94.27
2022-08-23T02:56:21.628Z,94.07
2022-08-23T02:58:54.569Z,94.01
2022-08-23T03:01:28.847Z,94.29
2022-08-23T03:04:00.927Z,94.21
2022-08-23T03:06:29.948Z,94.38
2022-08-23T03:08:58.482Z,94.38
2022-08-23T03:11:26.700Z,94.13
2022-08-23T03:13:56.511Z,94.10
2022-08-23T03:16:25.072Z,94.30
2022-08-23T03:18:53.323Z,94.54
2022-08-23T03:21:22.676Z,94.62
2022-08-23T03:23:51.604Z,94.67
2022-08-23T03:26:20.113Z,94.49
2022-08-23T03:28:48.520Z,94.47
2022-08-23T03:31:18.075Z,94.88
2022-08-23T03:34:03.768Z,94.36
2022-08-23T03:36:32.546Z,94.50
2022-08-23T03:39:00.927Z,94.51
2022-08-23T03:41:29.443Z,94.71
2022-08-23T03:43:57.739Z,95.05
2022-08-23T03:46:27.092Z,95.36
2022-08-23T03:49:01.664Z,95.31
2022-08-23T03:51:34.663Z,95.19
2022-08-23T03:54:03.669Z,95.32
2022-08-23T03:56:35.630Z,95.51
2022-08-23T03:59:09.608Z,95.50
2022-08-23T04:01:37.893Z,95.47
2022-08-23T04:04:06.349Z,95.54
2022-08-23T04:06:35.552Z,95.84
2022-08-23T04:09:04.360Z,95.53
2022-08-23T04:11:33.073Z,95.59
2022-08-23T04:14:06.492Z,95.37
2022-08-23T04:16:37.878Z,95.29
2022-08-23T04:19:13.346Z,95.45
2022-08-23T04:21:52.724Z,95.48
2022-08-23T04:24:20.928Z,95.70
2022-08-23T04:26:49.656Z,95.26
2022-08-23T04:29:33.739Z,95.33
2022-08-23T04:32:05.699Z,95.06
2022-08-23T04:34:38.364Z,95.05
2022-08-23T04:37:10.120Z,94.91
2022-08-23T04:39:57.288Z,95.03
2022-08-23T04:42:26.333Z,94.91
2022-08-23T04:44:55.020Z,94.75
2022-08-23T04:47:24.115Z,94.50
2022-08-23T04:49:53.105Z,94.45
2022-08-23T04:52:21.269Z,94.25
2022-08-23T04:54:50.301Z,94.43
2022-08-23T04:57:42.692Z,94.30
2022-08-23T05:00:16.613Z,94.14
2022-08-23T05:02:51.118Z,94.03
2022-08-23T05:05:20.931Z,93.85
2022-08-23T05:07:49.495Z,93.78
2022-08-23T05:10:17.847Z,93.67
2022-08-23T05:12:49.214Z,93.83
2022-08-23T05:15:18.247Z,93.43
2022-08-23T05:17:48.339Z,93.46
2022-08-23T05:20:17.823Z,93.04
2022-08-23T05:22:46.559Z,93.18
2022-08-23T05:25:22.699Z,93.00
2022-08-23T05:27:51.647Z,92.90
2022-08-23T05:30:19.814Z,92.57
2022-08-23T05:32:48.286Z,92.38
2022-08-23T05:35:16.527Z,92.28
2022-08-23T05:37:45.466Z,92.01
2022-08-23T05:40:14.592Z,91.67
2022-08-23T05:42:54.627Z,91.41
2022-08-23T05:45:22.853Z,91.25
2022-08-23T05:47:51.498Z,91.08
2022-08-23T05:50:38.376Z,90.92
2022-08-23T05:53:07.789Z,90.57
2022-08-23T05:55:36.281Z,90.35
2022-08-23T05:58:18.248Z,90.18
2022-08-23T06:00:46.683Z,89.97
2022-08-23T06:03:15.197Z,90.11
2022-08-23T06:05:43.542Z,89.78
2022-08-23T06:08:12.783Z,89.73
2022-08-23T06:10:42.507Z,89.71
2022-08-23T06:13:25.803Z,89.02
2022-08-23T06:15:54.436Z,89.10
2022-08-23T06:18:24.630Z,88.60
2022-08-23T06:21:10.334Z,88.49
2022-08-23T06:23:49.721Z,88.00
2022-08-23T06:26:22.469Z,87.55
2022-08-23T06:28:54.536Z,87.33
2022-08-23T06:31:43.238Z,87.06
2022-08-23T06:34:18.503Z,86.31
2022-08-23T06:37:15.135Z,85.89
2022-08-23T06:40:01.817Z,85.34
2022-08-23T06:42:48.510Z,84.60
2022-08-23T06:45:33.782Z,84.21
2022-08-23T06:48:04.133Z,83.83
2022-08-23T06:50:32.929Z,83.80
2022-08-23T06:53:19.521Z,83.75
2022-08-23T06:56:07.908Z,83.67
2022-08-23T06:59:06.921Z,83.02
2022-08-23T07:01:56.958Z,82.95
2022-08-23T07:04:36.342Z,82.64
2022-08-23T07:07:09.495Z,82.03
2022-08-23T07:09:41.286Z,81.19
2022-08-23T07:12:09.437Z,81.59
2022-08-23T07:14:40.085Z,81.36
2022-08-23T07:17:09.778Z,81.43
2022-08-23T07:19:38.178Z,81.21
2022-08-23T07:22:20.746Z,80.67
2022-08-23T07:24:48.922Z,79.71
2022-08-23T07:27:17.210Z,79.11
2022-08-23T07:29:53.249Z,78.80
2022-08-23T07:32:21.877Z,77.98
2022-08-23T07:34:51.285Z,78.14
2022-08-23T07:37:20.909Z,78.21
2022-08-23T07:39:49.087Z,78.52
2022-08-23T07:42:22.737Z,78.13
2022-08-23T07:44:53.707Z,78.05
2022-08-23T07:47:23.674Z,77.61
2022-08-23T07:49:52.709Z,77.14
2022-08-23T07:52:21.537Z,76.77
2022-08-23T07:54:49.965Z,76.00
2022-08-23T07:57:36.725Z,75.22
2022-08-23T08:00:23.551Z,74.29
2022-08-23T08:03:00.542Z,74.42
2022-08-23T08:05:36.679Z,74.44
2022-08-23T08:08:05.579Z,74.08
2022-08-23T08:10:38.448Z,73.20
2022-08-23T08:13:08.558Z,73.47
2022-08-23T08:15:42.074Z,73.32
2022-08-23T08:18:12.686Z,73.06
2022-08-23T08:21:19.562Z,72.02
2022-08-23T08:24:14.050Z,71.65
2022-08-23T08:26:46.598Z,71.91
2022-08-23T08:29:15.475Z,71.58
2022-08-23T08:31:49.509Z,71.69
2022-08-23T08:34:20.779Z,71.97
2022-08-23T08:36:54.852Z,71.43
2022-08-23T08:39:31.193Z,70.57
2022-08-23T08:42:33.761Z,70.47
2022-08-23T08:45:07.770Z,70.56
2022-08-23T08:47:43.970Z,70.55
2022-08-23T08:50:41.584Z,70.43
2022-08-23T08:53:16.606Z,70.73
2022-08-23T08:56:16.581Z,70.16
2022-08-23T08:58:52.949Z,70.31
2022-08-23T09:01:24.787Z,69.77
2022-08-23T09:03:53.997Z,69.04
2022-08-23T09:06:42.209Z,68.60
2022-08-23T09:09:37.039Z,68.90
2022-08-23T09:12:16.428Z,69.13
2022-08-23T09:15:06.161Z,69.63
2022-08-23T09:17:54.891Z,69.83
2022-08-23T09:20:32.806Z,69.40
2022-08-23T09:23:13.051Z,69.47
2022-08-23T09:25:41.946Z,69.97
2022-08-23T09:28:16.072Z,69.66
2022-08-23T09:30:50.361Z,69.33
2022-08-23T09:33:27.283Z,68.77
2022-08-23T09:36:12.769Z,68.39
2022-08-23T09:38:54.006Z,66.88
2022-08-23T09:41:29.482Z,64.89
2022-08-23T09:44:02.464Z,64.19
2022-08-23T09:46:36.000Z,63.59
2022-08-23T09:49:22.857Z,61.65
2022-08-23T09:51:52.435Z,60.81
2022-08-23T09:54:32.343Z,60.23
2022-08-23T09:57:10.388Z,60.44
2022-08-23T09:59:44.928Z,59.62
2022-08-23T10:02:22.511Z,58.60
2022-08-23T10:05:01.682Z,56.98
2022-08-23T10:07:42.611Z,56.22
2022-08-23T10:10:26.365Z,55.74
2022-08-23T10:12:57.155Z,55.53
2022-08-23T10:15:52.418Z,56.02
2022-08-23T10:18:42.696Z,56.15
2022-08-23T10:21:35.537Z,55.68
2022-08-23T10:24:22.681Z,55.97
2022-08-23T10:27:41.656Z,54.17
2022-08-23T10:30:18.508Z,55.02
2022-08-23T10:32:50.086Z,54.49
2022-08-23T10:35:36.529Z,53.46
2022-08-23T10:38:24.240Z,53.22
2022-08-23T10:41:47.712Z,54.81
2022-08-23T10:44:35.376Z,55.41
2022-08-23T10:47:27.412Z,56.97
2022-08-23T10:50:00.524Z,57.32
2022-08-23T10:52:36.208Z,57.67
2022-08-23T10:55:17.272Z,58.99
2022-08-23T10:57:49.246Z,59.05
2022-08-23T11:00:22.829Z,59.48
2022-08-23T11:03:10.029Z,59.06
2022-08-23T11:05:39.305Z,57.91
2022-08-23T11:08:34.377Z,57.93
2022-08-23T11:11:04.105Z,57.32
2022-08-23T11:13:35.425Z,56.93
2022-08-23T11:16:03.831Z,57.23
2022-08-23T11:18:37.988Z,56.32
2022-08-23T11:21:33.462Z,55.97
2022-08-23T11:24:05.280Z,55.06
2022-08-23T11:26:38.152Z,54.60
2022-08-23T11:29:07.441Z,52.58
2022-08-23T11:31:47.589Z,52.16
2022-08-23T11:34:27.296Z,52.08
2022-08-23T11:37:18.958Z,52.84
2022-08-23T11:39:58.076Z,52.75
2022-08-23T11:42:48.208Z,51.33
2022-08-23T11:45:37.710Z,51.23
2022-08-23T11:48:20.487Z,50.48
2022-08-23T11:50:57.602Z,51.22
2022-08-23T11:53:44.893Z,51.43
2022-08-23T11:56:37.144Z,50.80
2022-08-23T11:59:17.561Z,51.24
2022-08-23T12:01:47.231Z,51.92
2022-08-23T12:04:51.984Z,52.14
2022-08-23T12:07:59.985Z,51.88
2022-08-23T12:10:43.012Z,52.63
2022-08-23T12:13:23.154Z,53.33
2022-08-23T12:16:19.974Z,53.99
2022-08-23T12:18:52.979Z,53.04
2022-08-23T12:21:39.349Z,52.21
2022-08-23T12:24:19.167Z,52.36
2022-08-23T12:26:59.275Z,52.60
2022-08-23T12:29:45.439Z,52.65
2022-08-23T12:32:25.536Z,53.46
2022-08-23T12:35:19.174Z,52.93
2022-08-23T12:38:02.148Z,51.31
2022-08-23T12:40:35.253Z,52.09
2022-08-23T12:43:22.589Z,52.90
2022-08-23T12:45:57.924Z,53.58
2022-08-23T12:48:33.417Z,54.03
2022-08-23T12:51:11.368Z,55.19
2022-08-23T12:53:45.736Z,54.63
2022-08-23T12:56:22.835Z,54.11
2022-08-23T12:59:05.007Z,54.16
2022-08-23T13:01:39.174Z,54.38
2022-08-23T13:04:11.743Z,52.66
2022-08-23T13:06:55.518Z,51.98
2022-08-23T13:09:33.910Z,52.52
2022-08-23T13:12:03.314Z,52.75
2022-08-23T13:14:40.270Z,53.14
2022-08-23T13:17:20.253Z,53.72
2022-08-23T13:19:52.121Z,54.70
2022-08-23T13:22:20.265Z,55.53
2022-08-23T13:25:32.119Z,55.60
2022-08-23T13:28:06.341Z,55.27
2022-08-23T13:30:39.235Z,55.67
2022-08-23T13:33:07.875Z,55.31
2022-08-23T13:35:44.574Z,55.65
2022-08-23T13:38:20.124Z,56.09
2022-08-23T13:41:05.009Z,57.22
2022-08-23T13:43:40.182Z,57.56
2022-08-23T13:46:11.535Z,57.58
2022-08-23T13:48:54.695Z,57.24
2022-08-23T13:51:38.786Z,57.18
2022-08-23T13:54:13.372Z,55.14
2022-08-23T13:56:45.635Z,54.84
2022-08-23T13:59:35.583Z,54.44
2022-08-23T14:02:09.299Z,54.21
2022-08-23T14:04:37.577Z,54.15
2022-08-23T14:07:06.324Z,54.68
2022-08-23T14:09:38.293Z,55.50
2022-08-23T14:12:17.524Z,55.82
2022-08-23T14:14:46.728Z,56.28
2022-08-23T14:17:15.776Z,56.92
2022-08-23T14:22:36.118Z,58.18
2022-08-23T14:25:05.760Z,58.65
2022-08-23T14:27:34.743Z,58.97
2022-08-23T14:30:05.673Z,59.54
2022-08-23T14:32:33.981Z,60.26
2022-08-23T14:35:02.106Z,60.82
2022-08-23T14:40:18.978Z,62.59
2022-08-23T14:42:47.555Z,63.13
2022-08-23T14:45:18.285Z,63.89
2022-08-23T14:47:46.526Z,64.99
2022-08-23T14:50:15.869Z,65.80
2022-08-23T14:52:46.553Z,66.49
2022-08-23T14:55:14.866Z,67.00
2022-08-23T14:57:43.598Z,67.65
2022-08-23T15:00:15.622Z,68.59
2022-08-23T15:02:46.239Z,69.45
2022-08-23T15:05:15.695Z,70.17
2022-08-23T15:07:44.251Z,70.58
2022-08-23T15:10:49.940Z,70.65
2022-08-23T15:13:20.696Z,71.16
2022-08-23T15:15:52.955Z,71.97
2022-08-23T15:18:21.097Z,72.17
2022-08-23T15:20:49.566Z,72.82
2022-08-23T15:23:21.278Z,73.21
2022-08-23T15:25:50.298Z,73.56
2022-08-23T15:28:21.057Z,74.01
2022-08-23T15:30:50.274Z,74.32
2022-08-23T15:33:23.500Z,74.91
2022-08-23T15:35:57.298Z,75.07
2022-08-23T15:38:26.487Z,75.66
2022-08-23T15:40:55.232Z,76.04
2022-08-23T15:43:30.088Z,76.33
2022-08-23T15:46:19.323Z,76.73
2022-08-23T15:48:58.604Z,77.19
2022-08-23T15:51:26.748Z,77.49
2022-08-23T15:53:56.572Z,77.76
2022-08-23T15:56:41.687Z,78.13
2022-08-23T15:59:13.632Z,78.41
2022-08-23T16:01:42.332Z,78.85
2022-08-23T16:04:11.613Z,79.26
2022-08-23T16:06:41.553Z,79.86
2022-08-23T16:09:18.173Z,79.96
2022-08-23T16:11:46.704Z,80.58
2022-08-23T16:14:15.192Z,80.81
2022-08-23T16:16:46.912Z,81.52
2022-08-23T16:19:16.735Z,81.81
2022-08-23T16:21:45.169Z,82.49
2022-08-23T16:24:13.839Z,82.48
2022-08-23T16:26:45.512Z,82.93
2022-08-23T16:29:17.275Z,83.37
2022-08-23T16:31:46.737Z,83.43
2022-08-23T16:34:18.247Z,83.80
2022-08-23T16:36:50.657Z,84.06
2022-08-23T16:39:18.860Z,84.48
2022-08-23T16:41:46.973Z,84.70
2022-08-23T16:44:15.112Z,84.98
2022-08-23T16:46:44.195Z,85.31
2022-08-23T16:49:14.416Z,85.61
2022-08-23T16:51:43.262Z,85.85
2022-08-23T16:54:11.328Z,86.26
2022-08-23T16:56:40.989Z,86.59
2022-08-23T16:59:10.819Z,86.98
2022-08-23T17:02:10.643Z,87.05
2022-08-23T17:04:39.338Z,86.66
2022-08-23T17:07:07.620Z,86.89
2022-08-23T17:09:35.730Z,87.24
2022-08-23T17:12:04.027Z,87.44
2022-08-23T17:14:32.441Z,87.83
2022-08-23T17:17:00.775Z,88.09
2022-08-23T17:19:29.665Z,88.16
2022-08-23T17:22:01.981Z,88.33
2022-08-23T17:24:30.100Z,88.61
2022-08-23T17:26:58.335Z,88.54
2022-08-23T17:29:26.492Z,88.55
2022-08-23T17:31:54.793Z,88.46
2022-08-23T17:34:23.192Z,88.65
2022-08-23T17:36:54.133Z,89.32
2022-08-23T17:39:27.502Z,89.33
2022-08-23T17:41:57.964Z,89.13
2022-08-23T17:44:26.161Z,89.20
2022-08-23T17:46:54.304Z,89.37
2022-08-23T17:49:22.809Z,89.71
2022-08-23T17:52:17.260Z,90.08
2022-08-23T17:54:45.377Z,90.20
2022-08-23T17:57:39.512Z,90.33
2022-08-23T18:00:09.588Z,90.36
2022-08-23T18:02:38.280Z,90.78
2022-08-23T18:05:08.067Z,90.65
2022-08-23T18:07:36.995Z,90.44
2022-08-23T18:10:07.480Z,90.39
2022-08-23T18:12:35.608Z,90.26
2022-08-23T18:15:04.640Z,90.46
2022-08-23T18:17:40.390Z,90.53
2022-08-23T18:20:11.139Z,90.59
2022-08-23T18:22:39.976Z,91.22
2022-08-23T18:25:10.229Z,91.20
2022-08-23T18:27:57.147Z,91.62
2022-08-23T18:30:25.577Z,91.86
2022-08-23T18:32:53.848Z,92.13
2022-08-23T18:35:22.355Z,92.06
2022-08-23T18:37:50.512Z,92.24
2022-08-23T18:40:19.191Z,92.60
2022-08-23T18:43:18.035Z,92.81
2022-08-23T18:45:48.267Z,93.09
2022-08-23T18:48:17.283Z,93.50
2022-08-23T18:50:46.516Z,93.97
2022-08-23T18:53:14.788Z,94.07
2022-08-23T18:55:43.335Z,94.46
2022-08-23T18:58:11.596Z,94.25
2022-08-23T19:00:39.835Z,94.36
2022-08-23T19:03:08.785Z,94.81
2022-08-23T19:05:42.282Z,94.52
2022-08-23T19:08:11.950Z,94.29
2022-08-23T19:10:42.077Z,94.61
2022-08-23T19:13:35.173Z,94.88
2022-08-23T19:16:06.628Z,95.11
2022-08-23T19:18:35.895Z,94.84
2022-08-23T19:21:04.651Z,94.74
2022-08-23T19:23:33.119Z,94.77
2022-08-23T19:26:13.114Z,94.53
2022-08-23T19:28:42.099Z,94.89
2022-08-23T19:31:11.461Z,94.80
2022-08-23T19:33:40.531Z,94.82
2022-08-23T19:36:23.665Z,94.99
2022-08-23T19:38:57.375Z,95.12
2022-08-23T19:41:25.638Z,94.90
2022-08-23T19:43:54.354Z,95.20
2022-08-23T19:46:22.847Z,95.03
2022-08-23T19:48:51.528Z,95.08
2022-08-23T19:51:20.715Z,95.18
2022-08-23T19:54:04.720Z,95.32
2022-08-23T19:56:46.948Z,95.33
2022-08-23T19:59:21.810Z,95.55
2022-08-23T20:01:50.493Z,95.29
2022-08-23T20:04:19.771Z,95.42
2022-08-23T20:06:49.144Z,95.60
2022-08-23T20:09:42.204Z,95.29
2022-08-23T20:12:11.612Z,95.49
2022-08-23T20:14:39.704Z,95.42
2022-08-23T20:17:07.952Z,95.69
2022-08-23T20:19:41.198Z,95.60
2022-08-23T20:22:28.070Z,95.74
2022-08-23T20:24:56.152Z,96.03
2022-08-23T20:27:30.870Z,95.86
2022-08-23T20:30:01.686Z,95.77
2022-08-23T20:32:31.780Z,95.83
2022-08-23T20:35:01.873Z,95.81
2022-08-23T20:37:30.512Z,95.72
2022-08-23T20:39:58.939Z,95.55
2022-08-23T20:42:27.326Z,95.48
2022-08-23T20:44:55.885Z,95.30
2022-08-23T20:47:24.432Z,94.89
2022-08-23T20:49:52.597Z,95.06
2022-08-23T20:52:20.705Z,94.93
2022-08-23T20:54:48.981Z,94.56
2022-08-23T20:57:17.151Z,94.17
2022-08-23T20:59:45.418Z,93.48
2022-08-23T21:02:13.769Z,92.88
2022-08-23T21:04:41.896Z,92.76
2022-08-23T21:07:10.077Z,92.47
2022-08-23T21:09:38.169Z,92.00
2022-08-23T21:12:06.769Z,91.94
2022-08-23T21:14:35.306Z,91.80
2022-08-23T21:17:03.585Z,91.03
2022-08-23T21:19:31.767Z,91.12
2022-08-23T21:22:00.232Z,91.24
2022-08-23T21:24:28.539Z,91.24
2022-08-23T21:26:56.647Z,91.03
2022-08-23T21:29:24.787Z,90.87
2022-08-23T21:31:54.013Z,90.82
2022-08-23T21:34:22.171Z,91.05
2022-08-23T21:36:51.532Z,91.24
2022-08-23T21:39:19.692Z,91.05
2022-08-23T21:41:48.550Z,90.62
2022-08-23T21:44:20.330Z,90.48
2022-08-23T21:46:49.192Z,90.25
2022-08-23T21:49:42.344Z,90.19
2022-08-23T21:52:10.419Z,90.20
2022-08-23T21:54:43.306Z,90.26
2022-08-23T21:57:37.411Z,90.15
2022-08-23T22:00:30.445Z,89.92
2022-08-23T22:03:02.533Z,90.06
2022-08-23T22:05:31.930Z,90.26
2022-08-23T22:08:00.040Z,90.42
2022-08-23T22:10:28.429Z,90.72
2022-08-23T22:12:57.347Z,91.09
2022-08-23T22:15:26.004Z,90.65
2022-08-23T22:17:54.109Z,90.65
2022-08-23T22:20:47.116Z,90.75
2022-08-23T22:23:15.260Z,91.01
2022-08-23T22:26:08.406Z,90.90
2022-08-23T22:28:36.826Z,90.79
2022-08-23T22:31:06.988Z,91.14
2022-08-23T22:33:35.347Z,91.59
2022-08-23T22:36:16.650Z,91.24
2022-08-23T22:38:46.058Z,90.91
2022-08-23T22:41:19.605Z,90.68
2022-08-23T22:43:48.166Z,90.49
2022-08-23T22:46:16.872Z,89.99
2022-08-23T22:48:45.546Z,90.17
2022-08-23T22:51:18.337Z,90.49
2022-08-23T22:53:51.442Z,90.58
2022-08-23T22:56:22.944Z,91.09
2022-08-23T22:58:53.558Z,90.83
2022-08-23T23:01:26.228Z,90.97
2022-08-23T23:03:56.604Z,91.35
2022-08-23T23:06:25.397Z,91.11
2022-08-23T23:09:19.515Z,91.36
2022-08-23T23:11:48.499Z,91.32
2022-08-23T23:14:19.294Z,91.35
2022-08-23T23:16:49.546Z,91.59
2022-08-23T23:19:36.831Z,91.32
2022-08-23T23:22:07.897Z,91.48
2022-08-23T23:24:38.757Z,91.54
2022-08-23T23:27:07.685Z,91.58
2022-08-23T23:30:01.299Z,92.00
2022-08-23T23:32:29.417Z,92.20
2022-08-23T23:34:57.910Z,92.22
2022-08-23T23:37:55.199Z,92.35
2022-08-23T23:40:24.517Z,92.90
2022-08-23T23:42:53.567Z,93.06
2022-08-23T23:45:23.285Z,93.14
2022-08-23T23:47:52.082Z,92.71
2022-08-23T23:50:46.963Z,92.69
2022-08-23T23:53:15.906Z,92.80
2022-08-23T23:56:10.695Z,93.39
2022-08-23T23:58:39.220Z,93.37
